createdAt,value
2022-09-15T00:00:21.328Z,13.10
2022-09-15T00:03:24.058Z,13.10
2022-09-15T00:06:25.693Z,12.80
2022-09-15T00:09:27.382Z,12.90
2022-09-15T00:12:29.267Z,12.90
2022-09-15T00:15:30.993Z,12.90
2022-09-15T00:18:32.844Z,13.00
2022-09-15T00:21:37.495Z,13.00
2022-09-15T00:24:39.238Z,13.00
2022-09-15T00:27:43.789Z,13.00
2022-09-15T00:30:48.024Z,13.00
2022-09-15T00:33:51.897Z,12.90
2022-09-15T00:36:53.625Z,12.90
2022-09-15T00:39:55.271Z,12.90
2022-09-15T00:42:56.904Z,12.90
2022-09-15T00:45:58.602Z,12.90
2022-09-15T00:49:05.364Z,12.90
2022-09-15T00:52:22.335Z,12.90
2022-09-15T00:55:50.682Z,12.90
2022-09-15T00:58:58.912Z,12.90
2022-09-15T01:02:09.707Z,12.90
2022-09-15T01:05:14.869Z,12.80
2022-09-15T01:08:22.307Z,12.80
2022-09-15T01:11:24.685Z,12.80
2022-09-15T01:14:26.289Z,12.80
2022-09-15T01:17:42.879Z,12.70
2022-09-15T01:21:07.297Z,12.70
2022-09-15T01:24:51.132Z,12.60
2022-09-15T01:28:16.901Z,12.60
2022-09-15T01:31:30.428Z,12.60
2022-09-15T01:34:45.056Z,12.50
2022-09-15T01:37:57.592Z,12.50
2022-09-15T01:41:16.769Z,12.50
2022-09-15T01:44:47.758Z,12.50
2022-09-15T01:47:54.611Z,12.40
2022-09-15T01:51:00.335Z,12.50
2022-09-15T01:54:04.191Z,12.50
2022-09-15T01:57:05.877Z,12.50
2022-09-15T02:00:08.540Z,12.40
2022-09-15T02:03:34.968Z,12.40
2022-09-15T02:06:55.243Z,12.40
2022-09-15T02:10:30.789Z,12.40
2022-09-15T02:14:11.219Z,12.40
2022-09-15T02:17:17.109Z,12.40
2022-09-15T02:20:26.230Z,12.40
2022-09-15T02:23:32.765Z,12.40
2022-09-15T02:26:38.264Z,12.40
2022-09-15T02:29:41.447Z,12.40
2022-09-15T02:32:57.749Z,12.40
2022-09-15T02:36:00.049Z,12.40
2022-09-15T02:39:07.132Z,12.40
2022-09-15T02:42:10.480Z,12.40
2022-09-15T02:45:12.142Z,12.50
2022-09-15T02:48:13.937Z,12.20
2022-09-15T02:51:18.086Z,12.40
2022-09-15T02:54:19.977Z,12.50
2022-09-15T02:57:21.649Z,12.40
2022-09-15T03:00:23.825Z,12.40
2022-09-15T03:03:25.448Z,12.40
2022-09-15T03:06:30.732Z,12.50
2022-09-15T03:09:32.317Z,12.40
2022-09-15T03:12:41.539Z,12.40
2022-09-15T03:15:45.623Z,12.50
2022-09-15T03:18:48.239Z,12.40
2022-09-15T03:21:49.846Z,12.40
2022-09-15T03:24:51.762Z,12.40
2022-09-15T03:27:53.341Z,12.40
2022-09-15T03:30:55.434Z,12.50
2022-09-15T03:33:58.067Z,12.50
2022-09-15T03:36:59.684Z,12.40
2022-09-15T03:40:01.604Z,12.40
2022-09-15T03:43:03.473Z,12.40
2022-09-15T03:46:11.406Z,12.40
2022-09-15T03:49:13.268Z,12.40
2022-09-15T03:52:14.896Z,12.40
2022-09-15T03:55:17.081Z,12.40
2022-09-15T03:58:19.212Z,12.50
2022-09-15T04:01:21.254Z,12.40
2022-09-15T04:04:22.972Z,12.40
2022-09-15T04:07:24.998Z,12.30
2022-09-15T04:10:26.799Z,12.50
2022-09-15T04:13:28.849Z,12.50
2022-09-15T04:16:30.544Z,12.50
2022-09-15T04:19:32.211Z,12.50
2022-09-15T04:22:34.254Z,12.50
2022-09-15T04:25:37.408Z,12.50
2022-09-15T04:28:39.074Z,12.50
2022-09-15T04:31:40.868Z,12.40
2022-09-15T04:34:42.581Z,12.40
2022-09-15T04:37:44.561Z,12.50
2022-09-15T04:40:46.182Z,12.90
2022-09-15T04:44:04.234Z,12.70
2022-09-15T04:47:07.125Z,12.50
2022-09-15T04:50:09.096Z,12.50
2022-09-15T04:53:10.710Z,12.50
2022-09-15T04:56:15.096Z,12.50
2022-09-15T04:59:18.827Z,12.50
2022-09-15T05:02:20.545Z,12.50
2022-09-15T05:05:23.037Z,12.40
2022-09-15T05:08:24.661Z,12.50
2022-09-15T05:11:28.125Z,12.50
2022-09-15T05:14:29.955Z,12.50
2022-09-15T05:17:32.536Z,12.50
2022-09-15T05:20:34.322Z,12.50
2022-09-15T05:23:37.033Z,12.50
2022-09-15T05:26:38.676Z,12.40
2022-09-15T05:29:40.288Z,12.50
2022-09-15T05:32:47.893Z,12.50
2022-09-15T05:35:58.029Z,12.50
2022-09-15T05:39:00.165Z,12.50
2022-09-15T05:42:01.828Z,12.60
2022-09-15T05:45:03.660Z,12.60
2022-09-15T05:48:05.649Z,12.80
2022-09-15T05:51:07.892Z,12.90
2022-09-15T05:54:09.517Z,13.00
2022-09-15T05:57:11.377Z,13.00
2022-09-15T06:00:13.426Z,13.00
2022-09-15T06:03:16.451Z,13.10
2022-09-15T06:06:18.849Z,13.00
2022-09-15T06:09:20.512Z,13.10
2022-09-15T06:12:22.134Z,13.10
2022-09-15T06:15:24.714Z,13.20
2022-09-15T06:18:26.309Z,13.20
2022-09-15T06:21:29.723Z,13.40
2022-09-15T06:24:31.392Z,13.60
2022-09-15T06:27:33.241Z,13.80
2022-09-15T06:30:34.821Z,13.90
2022-09-15T06:33:36.477Z,13.90
2022-09-15T06:36:39.010Z,13.80
2022-09-15T06:39:40.721Z,13.70
2022-09-15T06:42:42.314Z,13.70
2022-09-15T06:45:46.955Z,13.60
2022-09-15T06:48:49.356Z,13.60
2022-09-15T06:51:50.948Z,13.60
2022-09-15T06:54:52.777Z,13.60
2022-09-15T06:57:54.357Z,13.60
2022-09-15T07:01:01.537Z,13.50
2022-09-15T07:04:06.529Z,13.50
2022-09-15T07:07:08.500Z,13.50
2022-09-15T07:10:10.141Z,13.50
2022-09-15T07:13:12.020Z,13.50
2022-09-15T07:16:14.086Z,13.50
2022-09-15T07:19:15.798Z,13.40
2022-09-15T07:22:17.385Z,13.40
2022-09-15T07:25:18.983Z,13.40
2022-09-15T07:28:20.584Z,13.50
2022-09-15T07:31:24.620Z,13.50
2022-09-15T07:34:26.321Z,13.60
2022-09-15T07:37:27.937Z,13.60
2022-09-15T07:40:29.576Z,13.60
2022-09-15T07:43:31.685Z,13.70
2022-09-15T07:46:33.664Z,13.70
2022-09-15T07:49:35.457Z,13.70
2022-09-15T07:52:37.044Z,13.80
2022-09-15T07:55:38.636Z,13.70
2022-09-15T07:58:40.514Z,13.70
2022-09-15T08:01:44.368Z,13.80
2022-09-15T08:04:46.458Z,13.80
2022-09-15T08:07:48.120Z,13.80
2022-09-15T08:10:49.714Z,13.90
2022-09-15T08:13:52.420Z,13.80
2022-09-15T08:16:54.084Z,13.80
2022-09-15T08:19:55.798Z,13.80
2022-09-15T08:22:57.456Z,13.90
2022-09-15T08:25:59.440Z,13.90
2022-09-15T08:29:01.128Z,13.80
2022-09-15T08:32:03.199Z,13.90
2022-09-15T08:35:07.477Z,13.80
2022-09-15T08:38:09.048Z,13.90
2022-09-15T08:41:20.044Z,14.00
2022-09-15T08:44:40.701Z,14.00
2022-09-15T08:47:46.940Z,14.10
2022-09-15T08:50:52.299Z,14.10
2022-09-15T08:54:00.317Z,14.10
2022-09-15T08:57:05.605Z,14.20
2022-09-15T09:00:14.806Z,14.20
2022-09-15T09:03:23.424Z,14.30
2022-09-15T09:06:44.473Z,14.30
2022-09-15T09:10:28.891Z,14.40
2022-09-15T09:13:36.969Z,14.40
2022-09-15T09:17:14.612Z,14.50
2022-09-15T09:20:34.508Z,14.70
2022-09-15T09:23:46.646Z,14.80
2022-09-15T09:26:51.608Z,14.90
2022-09-15T09:30:12.497Z,14.90
2022-09-15T09:34:01.897Z,14.90
2022-09-15T09:37:13.396Z,14.90
2022-09-15T09:40:18.828Z,14.90
2022-09-15T09:43:33.144Z,14.90
2022-09-15T09:46:35.014Z,14.90
2022-09-15T09:49:46.253Z,14.90
2022-09-15T09:52:47.848Z,15.00
2022-09-15T09:55:49.501Z,15.10
2022-09-15T09:58:52.068Z,15.20
2022-09-15T10:02:12.076Z,15.30
2022-09-15T10:05:20.793Z,15.30
2022-09-15T10:08:23.449Z,15.40
2022-09-15T10:11:57.430Z,15.30
2022-09-15T10:15:05.142Z,15.40
2022-09-15T10:18:07.618Z,15.30
2022-09-15T10:21:09.972Z,15.30
2022-09-15T10:24:44.268Z,15.30
2022-09-15T10:28:22.941Z,15.30
2022-09-15T10:31:31.875Z,15.40
2022-09-15T10:34:33.496Z,15.40
2022-09-15T10:37:45.185Z,15.50
2022-09-15T10:40:57.203Z,15.60
2022-09-15T10:44:28.646Z,15.60
2022-09-15T10:48:07.019Z,15.70
2022-09-15T10:51:34.537Z,15.70
2022-09-15T10:55:03.653Z,15.70
2022-09-15T10:58:23.327Z,15.70
2022-09-15T11:01:40.735Z,15.70
2022-09-15T11:04:50.563Z,15.80
2022-09-15T11:08:08.553Z,16.00
2022-09-15T11:11:48.308Z,16.20
2022-09-15T11:15:24.013Z,16.30
2022-09-15T11:18:44.613Z,16.30
2022-09-15T11:21:52.549Z,16.30
2022-09-15T11:25:13.245Z,16.20
2022-09-15T11:28:30.538Z,16.30
2022-09-15T11:31:41.978Z,16.40
2022-09-15T11:35:19.857Z,16.30
2022-09-15T11:38:40.517Z,16.30
2022-09-15T11:41:45.712Z,16.20
2022-09-15T11:44:49.379Z,16.10
2022-09-15T11:47:56.334Z,16.10
2022-09-15T11:51:01.669Z,16.10
2022-09-15T11:54:13.529Z,16.10
2022-09-15T11:57:21.082Z,16.20
2022-09-15T12:00:22.761Z,16.30
2022-09-15T12:03:45.724Z,16.40
2022-09-15T12:10:21.694Z,16.50
2022-09-15T12:13:25.446Z,16.40
2022-09-15T12:16:28.177Z,16.40
2022-09-15T12:19:33.415Z,16.40
2022-09-15T12:22:44.918Z,16.40
2022-09-15T12:26:09.048Z,16.40
2022-09-15T12:29:25.964Z,16.30
2022-09-15T12:32:33.164Z,16.40
2022-09-15T12:35:34.906Z,16.50
2022-09-15T12:38:36.539Z,16.50
2022-09-15T12:41:47.323Z,16.60
2022-09-15T12:45:07.928Z,16.60
2022-09-15T12:48:15.420Z,16.60
2022-09-15T12:51:27.913Z,16.50
2022-09-15T12:54:33.119Z,16.60
2022-09-15T12:57:36.862Z,16.50
2022-09-15T13:00:49.962Z,16.50
2022-09-15T13:04:02.032Z,16.40
2022-09-15T13:07:18.426Z,16.40
2022-09-15T13:10:36.542Z,16.60
2022-09-15T13:13:52.413Z,16.60
2022-09-15T13:17:50.261Z,16.60
2022-09-15T13:21:04.708Z,16.70
2022-09-15T13:24:19.837Z,16.70
2022-09-15T13:27:25.940Z,16.70
2022-09-15T13:30:50.293Z,16.60
2022-09-15T13:38:07.997Z,16.70
2022-09-15T13:41:54.605Z,16.70
2022-09-15T13:45:27.094Z,16.60
2022-09-15T13:48:29.137Z,16.70
2022-09-15T13:51:33.298Z,16.80
2022-09-15T13:54:35.174Z,16.90
2022-09-15T14:01:07.432Z,17.00
2022-09-15T14:04:19.158Z,17.00
2022-09-15T14:07:24.687Z,17.10
2022-09-15T14:10:31.629Z,17.20
2022-09-15T14:13:36.386Z,17.20
2022-09-15T14:16:39.116Z,17.10
2022-09-15T14:19:42.481Z,17.20
2022-09-15T14:22:50.745Z,17.00
2022-09-15T14:25:52.494Z,17.00
2022-09-15T14:28:59.579Z,16.90
2022-09-15T14:32:03.677Z,16.90
2022-09-15T14:35:09.265Z,17.00
2022-09-15T14:38:22.573Z,17.00
2022-09-15T14:41:24.312Z,17.00
2022-09-15T14:48:01.292Z,16.90
2022-09-15T14:51:08.545Z,16.80
2022-09-15T14:54:37.094Z,16.70
2022-09-15T15:00:59.630Z,16.60
2022-09-15T15:04:21.460Z,16.50
2022-09-15T15:07:29.264Z,16.50
2022-09-15T15:10:35.723Z,16.40
2022-09-15T15:13:42.665Z,16.40
2022-09-15T15:16:59.389Z,16.40
2022-09-15T15:20:31.263Z,16.40
2022-09-15T15:23:33.001Z,16.40
2022-09-15T15:26:37.159Z,16.60
2022-09-15T15:29:46.904Z,16.60
2022-09-15T15:32:51.838Z,16.60
2022-09-15T15:36:05.497Z,16.60
2022-09-15T15:39:19.353Z,16.50
2022-09-15T15:42:21.548Z,16.50
2022-09-15T15:45:28.031Z,16.30
2022-09-15T15:48:38.671Z,16.30
2022-09-15T15:51:40.801Z,16.30
2022-09-15T15:54:43.042Z,16.20
2022-09-15T15:57:47.728Z,16.10
2022-09-15T16:00:51.643Z,16.10
2022-09-15T16:03:53.423Z,16.00
2022-09-15T16:06:55.029Z,16.00
2022-09-15T16:09:56.771Z,15.90
2022-09-15T16:12:58.364Z,15.90
2022-09-15T16:16:01.152Z,15.80
2022-09-15T16:19:02.920Z,15.70
2022-09-15T16:22:04.645Z,15.70
2022-09-15T16:25:18.653Z,15.70
2022-09-15T16:28:20.275Z,15.70
2022-09-15T16:31:21.936Z,15.60
2022-09-15T16:34:23.640Z,15.60
2022-09-15T16:37:47.300Z,15.60
2022-09-15T16:40:51.006Z,15.60
2022-09-15T16:43:56.162Z,16.00
2022-09-15T16:46:57.877Z,15.60
2022-09-15T16:49:59.519Z,15.50
2022-09-15T16:53:01.145Z,15.50
2022-09-15T16:56:03.332Z,15.40
2022-09-15T16:59:05.083Z,15.40
2022-09-15T17:02:33.297Z,15.20
2022-09-15T17:05:43.048Z,15.20
2022-09-15T17:08:46.827Z,15.20
2022-09-15T17:11:48.687Z,16.10
2022-09-15T17:14:53.398Z,14.50
2022-09-15T17:18:13.334Z,15.00
2022-09-15T17:21:16.807Z,15.00
2022-09-15T17:24:18.392Z,15.00
2022-09-15T17:27:20.007Z,15.00
2022-09-15T17:30:26.384Z,14.70
2022-09-15T17:33:29.494Z,14.80
2022-09-15T17:40:17.738Z,14.80
2022-09-15T17:43:25.202Z,14.70
2022-09-15T17:46:26.869Z,15.30
2022-09-15T17:49:28.659Z,15.30
2022-09-15T17:52:31.576Z,15.40
2022-09-15T17:55:34.328Z,14.80
2022-09-15T17:58:35.934Z,14.70
2022-09-15T18:01:37.602Z,15.00
2022-09-15T18:04:39.236Z,14.60
2022-09-15T18:07:41.670Z,14.60
2022-09-15T18:10:43.761Z,14.60
2022-09-15T18:13:45.381Z,14.60
2022-09-15T18:16:47.569Z,14.60
2022-09-15T18:19:50.457Z,14.60
2022-09-15T18:22:52.748Z,14.50
2022-09-15T18:25:54.581Z,14.50
2022-09-15T18:28:56.871Z,14.50
2022-09-15T18:32:00.225Z,14.50
2022-09-15T18:35:01.893Z,14.40
2022-09-15T18:38:16.291Z,14.40
2022-09-15T18:41:18.452Z,14.40
2022-09-15T18:48:44.738Z,14.30
2022-09-15T18:51:53.429Z,14.20
2022-09-15T18:54:59.530Z,14.20
2022-09-15T18:58:01.471Z,14.00
2022-09-15T19:01:04.195Z,14.20
2022-09-15T19:04:05.808Z,14.00
2022-09-15T19:07:08.456Z,14.00
2022-09-15T19:10:11.978Z,14.00
2022-09-15T19:13:15.489Z,13.90
2022-09-15T19:16:18.334Z,13.30
2022-09-15T19:19:23.140Z,13.90
2022-09-15T19:22:24.781Z,13.90
2022-09-15T19:25:26.384Z,13.80
2022-09-15T19:28:27.980Z,13.80
2022-09-15T19:31:30.099Z,13.80
2022-09-15T19:34:32.215Z,13.80
2022-09-15T19:37:37.898Z,13.80
2022-09-15T19:40:39.561Z,13.80
2022-09-15T19:43:41.344Z,13.80
2022-09-15T19:46:45.650Z,13.70
2022-09-15T19:49:47.459Z,13.60
2022-09-15T19:52:49.089Z,13.60
2022-09-15T19:55:51.480Z,13.60
2022-09-15T19:58:55.931Z,13.50
2022-09-15T20:01:57.815Z,13.50
2022-09-15T20:04:59.588Z,13.30
2022-09-15T20:08:02.022Z,13.30
2022-09-15T20:11:07.912Z,13.30
2022-09-15T20:14:09.596Z,13.20
2022-09-15T20:17:18.643Z,13.10
2022-09-15T20:20:22.826Z,13.20
2022-09-15T20:23:24.456Z,13.30
2022-09-15T20:26:26.696Z,13.30
2022-09-15T20:29:28.728Z,13.10
2022-09-15T20:32:33.104Z,13.10
2022-09-15T20:35:34.685Z,13.10
2022-09-15T20:38:37.404Z,13.10
2022-09-15T20:41:39.996Z,13.00
2022-09-15T20:44:41.576Z,13.00
2022-09-15T20:47:43.192Z,13.00
2022-09-15T20:50:44.774Z,13.00
2022-09-15T20:53:48.816Z,13.00
2022-09-15T20:56:50.455Z,13.00
2022-09-15T20:59:52.038Z,12.90
2022-09-15T21:02:53.667Z,12.90
2022-09-15T21:06:03.960Z,12.80
2022-09-15T21:09:06.283Z,12.80
2022-09-15T21:12:08.085Z,12.70
2022-09-15T21:15:10.255Z,12.60
2022-09-15T21:18:11.840Z,12.60
2022-09-15T21:21:16.152Z,12.60
2022-09-15T21:24:17.781Z,12.60
2022-09-15T21:27:28.715Z,12.50
2022-09-15T21:30:30.287Z,12.50
2022-09-15T21:33:32.204Z,12.50
2022-09-15T21:36:33.920Z,12.40
2022-09-15T21:39:35.563Z,12.20
2022-09-15T21:42:37.150Z,12.40
2022-09-15T21:45:38.811Z,12.30
2022-09-15T21:48:40.915Z,12.30
2022-09-15T21:51:42.686Z,12.20
2022-09-15T21:54:44.422Z,12.20
2022-09-15T21:57:46.072Z,12.10
2022-09-15T22:00:49.256Z,12.40
2022-09-15T22:04:01.836Z,12.00
2022-09-15T22:07:04.355Z,12.00
2022-09-15T22:10:06.330Z,12.00
2022-09-15T22:13:09.943Z,12.00
2022-09-15T22:16:36.638Z,11.90
2022-09-15T22:19:38.307Z,11.90
2022-09-15T22:22:40.501Z,12.10
2022-09-15T22:25:42.113Z,12.40
2022-09-15T22:28:47.150Z,11.00
2022-09-15T22:31:48.863Z,11.70
2022-09-15T22:34:50.494Z,10.80
2022-09-15T22:37:52.115Z,11.80
2022-09-15T22:40:53.939Z,12.90
2022-09-15T22:43:55.867Z,10.90
2022-09-15T22:46:57.534Z,10.90
2022-09-15T22:49:59.281Z,12.30
2022-09-15T22:53:00.898Z,12.10
2022-09-15T22:56:14.582Z,10.80
2022-09-15T22:59:16.952Z,11.80
2022-09-15T23:02:18.622Z,11.90
2022-09-15T23:05:20.281Z,11.30
2022-09-15T23:08:21.934Z,12.20
2022-09-15T23:11:24.580Z,11.90
2022-09-15T23:14:26.309Z,11.90
2022-09-15T23:17:27.961Z,11.90
2022-09-15T23:20:29.609Z,12.40
2022-09-15T23:23:31.276Z,12.00
2022-09-15T23:26:32.993Z,11.70
2022-09-15T23:29:34.654Z,12.50
2022-09-15T23:32:36.915Z,12.70
2022-09-15T23:35:38.541Z,11.80
2022-09-15T23:38:42.101Z,12.20
2022-09-15T23:41:43.840Z,12.40
2022-09-15T23:44:45.487Z,11.90
2022-09-15T23:47:47.160Z,12.00
2022-09-15T23:50:48.871Z,11.00
2022-09-15T23:53:50.661Z,11.80
2022-09-15T23:56:52.481Z,11.70
2022-09-15T23:59:54.120Z,11.60
